Grassy Creek, Kentucky
Current Conditions -  °F | °C
As of 4:53 AM on Sunday 21 Dec 2014 (Local Time) from KJKL Reporting Station
Clear Clear  
Wind Chill: 27°   Ceiling: Unl
Heat Index: 27°   Visibility: 8mi
Dew Point: 22°   Wind: 3mph
Humidity: 81%   Direction: 40°NE
Pressure: 30.24"   Gusts: NA
Location:  37.8594°N, 83.3736°W
Report Text: KJKL 210953Z AUTO 04003KT 8SM CLR M03/M06 A3024 RMK AO2 SLP252 I1000 T10281056
Loading
Personal Weather Stations






























Interactive Weather Map New forecast layout! Learn more

10-Day Weather Forecast

Advertisements
Track Severe Weather on mobile